Unity, New Hampshire
Current Conditions -  °F | °C
As of 2:54 AM on Saturday 22 Nov 2014 (Local Time) from KVSF Reporting Station
Overcast Overcast  
Wind Chill: 15°   Ceiling: 4200
Heat Index: 15°   Visibility: 10mi
Dew Point:   Wind: 0mph
Humidity: 77%   Direction: NA
Pressure: 30.37"   Gusts: NA
Location:  43.3506°N, 72.3252°W
Report Text: KVSF 220754Z AUTO 00000KT 10SM OVC042 M09/M13 A3037 RMK AO2 SLP296 T10941128 $
Loading
Personal Weather Stations






























Interactive Weather Map New forecast layout! Learn more

10-Day Weather Forecast

Advertisements
Track Severe Weather on mobile